createdAt,value
2023-05-15T00:00:52.455Z,17.40
2023-05-15T00:03:21.321Z,17.40
2023-05-15T00:05:49.954Z,17.40
2023-05-15T00:08:18.003Z,17.40
2023-05-15T00:10:57.554Z,17.40
2023-05-15T00:13:29.034Z,17.40
2023-05-15T00:15:58.357Z,17.40
2023-05-15T00:18:26.236Z,17.40
2023-05-15T00:20:54.164Z,17.30
2023-05-15T00:23:21.943Z,17.20
2023-05-15T00:25:50.757Z,17.20
2023-05-15T00:28:18.602Z,16.50
2023-05-15T00:30:46.539Z,17.20
2023-05-15T00:33:15.670Z,17.20
2023-05-15T00:35:43.625Z,17.10
2023-05-15T00:38:11.585Z,17.10
2023-05-15T00:40:40.587Z,15.90
2023-05-15T00:43:10.643Z,17.00
2023-05-15T00:45:41.588Z,17.00
2023-05-15T00:48:11.559Z,16.90
2023-05-15T00:50:42.460Z,16.90
2023-05-15T00:53:10.886Z,16.90
2023-05-15T00:55:39.302Z,16.80
2023-05-15T00:58:08.885Z,16.80
2023-05-15T01:00:37.407Z,16.70
2023-05-15T01:03:06.553Z,16.70
2023-05-15T01:05:34.486Z,16.70
2023-05-15T01:08:14.097Z,16.60
2023-05-15T01:10:43.943Z,16.60
2023-05-15T01:13:14.973Z,16.60
2023-05-15T01:15:43.159Z,16.50
2023-05-15T01:18:11.142Z,16.50
2023-05-15T01:20:51.041Z,16.50
2023-05-15T01:23:26.958Z,16.50
2023-05-15T01:26:45.609Z,16.40
2023-05-15T01:29:21.909Z,16.40
2023-05-15T01:31:55.224Z,16.40
2023-05-15T01:34:30.420Z,16.50
2023-05-15T01:37:03.972Z,16.30
2023-05-15T01:39:34.773Z,16.30
2023-05-15T01:42:08.602Z,16.30
2023-05-15T01:44:42.245Z,16.30
2023-05-15T01:47:14.649Z,16.20
2023-05-15T01:49:44.119Z,15.20
2023-05-15T01:52:17.753Z,16.20
2023-05-15T01:54:46.948Z,16.20
2023-05-15T01:57:16.608Z,16.20
2023-05-15T01:59:46.926Z,16.20
2023-05-15T02:02:16.399Z,16.10
2023-05-15T02:04:45.691Z,16.30
2023-05-15T02:07:14.815Z,16.10
2023-05-15T02:09:43.422Z,16.10
2023-05-15T02:12:12.611Z,16.00
2023-05-15T02:14:42.323Z,15.90
2023-05-15T02:17:11.650Z,15.90
2023-05-15T02:19:39.526Z,16.00
2023-05-15T02:22:07.439Z,16.00
2023-05-15T02:24:35.385Z,16.00
2023-05-15T02:27:10.495Z,16.10
2023-05-15T02:29:43.895Z,16.10
2023-05-15T02:32:16.540Z,16.10
2023-05-15T02:34:54.720Z,16.10
2023-05-15T02:37:28.218Z,16.10
2023-05-15T02:39:59.614Z,16.10
2023-05-15T02:42:28.787Z,16.10
2023-05-15T02:44:58.257Z,16.10
2023-05-15T02:47:28.629Z,16.00
2023-05-15T02:49:57.662Z,16.00
2023-05-15T02:52:25.849Z,16.00
2023-05-15T02:54:54.280Z,16.00
2023-05-15T02:57:22.129Z,16.00
2023-05-15T02:59:50.535Z,16.00
2023-05-15T03:02:18.397Z,16.00
2023-05-15T03:04:48.135Z,16.00
2023-05-15T03:07:16.107Z,16.00
2023-05-15T03:09:43.914Z,16.00
2023-05-15T03:12:12.126Z,16.40
2023-05-15T03:14:39.943Z,16.00
2023-05-15T03:17:07.817Z,15.90
2023-05-15T03:19:36.011Z,15.90
2023-05-15T03:22:05.661Z,15.90
2023-05-15T03:24:33.559Z,15.90
2023-05-15T03:27:01.299Z,15.90
2023-05-15T03:29:29.093Z,15.90
2023-05-15T03:31:56.909Z,15.90
2023-05-15T03:34:24.734Z,15.90
2023-05-15T03:36:52.553Z,15.80
2023-05-15T03:39:21.697Z,15.80
2023-05-15T03:41:49.824Z,15.70
2023-05-15T03:44:17.779Z,15.70
2023-05-15T03:46:45.686Z,15.70
2023-05-15T03:49:13.558Z,15.70
2023-05-15T03:51:41.457Z,15.70
2023-05-15T03:54:09.423Z,15.60
2023-05-15T03:56:38.618Z,15.60
2023-05-15T03:59:06.553Z,15.60
2023-05-15T04:01:39.313Z,15.60
2023-05-15T04:04:15.488Z,15.60
2023-05-15T04:06:43.835Z,15.60
2023-05-15T04:09:11.672Z,15.60
2023-05-15T04:11:40.918Z,15.60
2023-05-15T04:14:08.770Z,15.60
2023-05-15T04:16:36.683Z,15.50
2023-05-15T04:19:04.728Z,15.50
2023-05-15T04:21:32.763Z,15.50
2023-05-15T04:24:00.579Z,15.40
2023-05-15T04:26:28.406Z,15.40
2023-05-15T04:29:03.995Z,15.40
2023-05-15T04:31:32.973Z,15.40
2023-05-15T04:34:00.873Z,15.40
2023-05-15T04:36:29.176Z,15.40
2023-05-15T04:38:57.022Z,15.40
2023-05-15T04:41:24.877Z,15.70
2023-05-15T04:43:52.801Z,15.40
2023-05-15T04:46:22.138Z,15.30
2023-05-15T04:48:50.732Z,15.30
2023-05-15T04:51:18.589Z,15.30
2023-05-15T04:53:46.748Z,15.20
2023-05-15T04:56:14.577Z,15.20
2023-05-15T04:58:42.372Z,15.20
2023-05-15T05:01:10.499Z,15.10
2023-05-15T05:03:39.758Z,15.10
2023-05-15T05:06:07.967Z,15.10
2023-05-15T05:08:35.788Z,15.10
2023-05-15T05:11:03.895Z,15.10
2023-05-15T05:13:31.697Z,15.10
2023-05-15T05:15:59.676Z,15.10
2023-05-15T05:18:27.521Z,15.10
2023-05-15T05:21:01.909Z,15.10
2023-05-15T05:23:29.902Z,15.10
2023-05-15T05:25:58.232Z,15.10
2023-05-15T05:28:26.220Z,15.10
2023-05-15T05:30:54.249Z,15.10
2023-05-15T05:33:22.055Z,15.20
2023-05-15T05:35:51.703Z,15.20
2023-05-15T05:38:20.848Z,16.50
2023-05-15T05:40:48.707Z,15.30
2023-05-15T05:43:16.936Z,15.30
2023-05-15T05:45:44.844Z,15.30
2023-05-15T05:48:13.369Z,15.40
2023-05-15T05:50:42.323Z,15.40
2023-05-15T05:53:10.576Z,15.50
2023-05-15T05:55:39.738Z,15.50
2023-05-15T05:58:14.782Z,15.50
2023-05-15T06:00:52.267Z,15.60
2023-05-15T06:03:22.237Z,15.70
2023-05-15T06:05:51.305Z,15.70
2023-05-15T06:08:19.574Z,15.70
2023-05-15T06:10:52.123Z,15.80
2023-05-15T06:13:20.035Z,15.80
2023-05-15T06:15:47.973Z,15.80
2023-05-15T06:18:16.083Z,15.90
2023-05-15T06:20:44.018Z,15.90
2023-05-15T06:23:11.833Z,15.90
2023-05-15T06:25:40.080Z,15.90
2023-05-15T06:28:09.385Z,16.00
2023-05-15T06:30:37.317Z,16.10
2023-05-15T06:33:05.375Z,16.00
2023-05-15T06:35:33.394Z,16.30
2023-05-15T06:38:01.917Z,16.40
2023-05-15T06:40:29.779Z,16.50
2023-05-15T06:42:58.652Z,16.60
2023-05-15T06:45:28.352Z,16.80
2023-05-15T06:47:57.495Z,16.90
2023-05-15T06:50:27.051Z,17.20
2023-05-15T06:52:54.925Z,17.20
2023-05-15T06:55:22.992Z,17.30
2023-05-15T06:57:51.294Z,17.40
2023-05-15T07:00:19.720Z,17.50
2023-05-15T07:02:49.217Z,17.60
2023-05-15T07:05:17.825Z,17.70
2023-05-15T07:07:46.063Z,17.80
2023-05-15T07:10:14.147Z,17.90
2023-05-15T07:12:41.974Z,18.00
2023-05-15T07:15:10.641Z,18.10
2023-05-15T07:17:38.658Z,18.20
2023-05-15T07:20:09.110Z,18.30
2023-05-15T07:22:44.643Z,18.40
2023-05-15T07:25:20.236Z,18.50
2023-05-15T07:27:48.760Z,18.50
2023-05-15T07:30:17.251Z,18.60
2023-05-15T07:32:45.061Z,18.70
2023-05-15T07:35:14.930Z,18.80
2023-05-15T07:37:42.799Z,18.90
2023-05-15T07:40:11.545Z,19.00
2023-05-15T07:42:41.814Z,19.20
2023-05-15T07:45:10.862Z,19.30
2023-05-15T07:47:38.791Z,19.40
2023-05-15T07:50:07.579Z,19.60
2023-05-15T07:52:36.761Z,19.60
2023-05-15T07:55:05.024Z,19.70
2023-05-15T07:57:32.908Z,19.80
2023-05-15T08:00:02.438Z,19.90
2023-05-15T08:02:36.992Z,20.00
2023-05-15T08:05:05.649Z,20.00
2023-05-15T08:07:35.527Z,20.10
2023-05-15T08:10:06.070Z,20.30
2023-05-15T08:12:36.576Z,20.30
2023-05-15T08:15:05.121Z,20.40
2023-05-15T08:17:32.948Z,20.50
2023-05-15T08:20:00.920Z,20.60
2023-05-15T08:22:30.341Z,20.70
2023-05-15T08:24:59.514Z,20.80
2023-05-15T08:27:28.677Z,20.90
2023-05-15T08:29:56.624Z,21.00
2023-05-15T08:32:24.490Z,21.10
2023-05-15T08:34:52.336Z,21.20
2023-05-15T08:37:20.177Z,21.30
2023-05-15T08:39:48.006Z,21.40
2023-05-15T08:42:21.955Z,21.40
2023-05-15T08:44:52.090Z,21.50
2023-05-15T08:47:20.632Z,21.60
2023-05-15T08:49:55.216Z,21.70
2023-05-15T08:52:23.717Z,21.70
2023-05-15T08:54:51.812Z,21.80
2023-05-15T08:57:19.966Z,21.90
2023-05-15T08:59:47.832Z,21.90
2023-05-15T09:02:18.016Z,22.00
2023-05-15T09:04:46.044Z,22.00
2023-05-15T09:07:15.171Z,22.00
2023-05-15T09:09:45.178Z,22.00
2023-05-15T09:12:17.051Z,22.00
2023-05-15T09:14:45.258Z,22.10
2023-05-15T09:17:13.671Z,22.10
2023-05-15T09:19:43.804Z,22.20
2023-05-15T09:22:23.457Z,22.20
2023-05-15T09:24:53.093Z,22.20
2023-05-15T09:27:21.470Z,22.30
2023-05-15T09:29:51.651Z,22.30
2023-05-15T09:32:19.839Z,22.30
2023-05-15T09:34:49.693Z,22.30
2023-05-15T09:37:29.798Z,22.30
2023-05-15T09:40:09.090Z,22.30
2023-05-15T09:42:37.039Z,22.30
2023-05-15T09:45:05.831Z,22.20
2023-05-15T09:47:34.800Z,22.20
2023-05-15T09:50:04.342Z,22.30
2023-05-15T09:52:33.017Z,22.30
2023-05-15T09:55:00.903Z,22.40
2023-05-15T09:57:28.694Z,22.50
2023-05-15T09:59:57.279Z,22.80
2023-05-15T10:02:28.224Z,22.70
2023-05-15T10:04:57.641Z,22.90
2023-05-15T10:07:34.555Z,22.90
2023-05-15T10:10:03.956Z,22.90
2023-05-15T10:12:32.620Z,22.90
2023-05-15T10:15:01.974Z,22.90
2023-05-15T10:17:32.588Z,22.90
2023-05-15T10:20:02.630Z,22.80
2023-05-15T10:22:38.059Z,22.80
2023-05-15T10:25:14.354Z,22.70
2023-05-15T10:27:43.583Z,22.60
2023-05-15T10:30:12.678Z,22.50
2023-05-15T10:32:41.917Z,22.40
2023-05-15T10:35:12.601Z,22.30
2023-05-15T10:37:41.867Z,22.30
2023-05-15T10:40:11.638Z,22.20
2023-05-15T10:42:42.442Z,22.10
2023-05-15T10:45:11.621Z,22.00
2023-05-15T10:47:40.263Z,21.90
2023-05-15T10:50:09.200Z,21.80
2023-05-15T10:52:38.418Z,21.70
2023-05-15T10:55:10.262Z,21.70
2023-05-15T10:57:38.974Z,21.60
2023-05-15T11:00:26.244Z,21.50
2023-05-15T11:02:57.299Z,21.50
2023-05-15T11:05:26.017Z,21.40
2023-05-15T11:08:27.383Z,21.30
2023-05-15T11:10:56.632Z,21.20
2023-05-15T11:13:24.581Z,21.20
2023-05-15T11:15:52.670Z,21.10
2023-05-15T11:18:21.816Z,21.10
2023-05-15T11:21:10.864Z,21.00
2023-05-15T11:23:42.775Z,21.00
2023-05-15T11:26:14.906Z,21.00
2023-05-15T11:28:45.084Z,21.00
2023-05-15T11:31:13.193Z,20.90
2023-05-15T11:33:41.639Z,20.80
2023-05-15T11:36:09.617Z,20.80
2023-05-15T11:38:41.138Z,20.70
2023-05-15T11:41:21.981Z,20.70
2023-05-15T11:43:51.154Z,20.60
2023-05-15T11:46:19.081Z,20.60
2023-05-15T11:48:48.998Z,20.80
2023-05-15T11:51:19.663Z,20.50
2023-05-15T11:53:50.405Z,20.50
2023-05-15T11:56:22.820Z,20.50
2023-05-15T11:58:51.984Z,20.60
2023-05-15T12:01:19.905Z,20.60
2023-05-15T12:03:49.734Z,20.60
2023-05-15T12:06:18.286Z,20.60
2023-05-15T12:08:52.597Z,20.60
2023-05-15T12:11:25.458Z,20.80
2023-05-15T12:13:54.576Z,20.70
2023-05-15T12:16:25.707Z,20.60
2023-05-15T12:18:53.668Z,20.70
2023-05-15T12:21:21.860Z,20.80
2023-05-15T12:24:06.441Z,20.90
2023-05-15T12:26:37.442Z,21.00
2023-05-15T12:29:05.980Z,21.10
2023-05-15T12:31:35.565Z,21.20
2023-05-15T12:34:03.557Z,21.30
2023-05-15T12:36:31.982Z,21.30
2023-05-15T12:39:05.642Z,21.40
2023-05-15T12:41:33.637Z,21.50
2023-05-15T12:44:02.860Z,21.60
2023-05-15T12:46:32.403Z,21.70
2023-05-15T12:49:00.719Z,21.80
2023-05-15T12:51:29.921Z,21.90
2023-05-15T12:53:58.834Z,22.00
2023-05-15T12:56:27.103Z,22.10
2023-05-15T12:58:56.725Z,22.20
2023-05-15T13:01:26.783Z,22.30
2023-05-15T13:03:55.173Z,22.40
2023-05-15T13:06:24.083Z,22.50
2023-05-15T13:08:52.017Z,22.60
2023-05-15T13:11:19.969Z,22.60
2023-05-15T13:13:49.699Z,22.60
2023-05-15T13:16:22.404Z,22.70
2023-05-15T13:18:52.368Z,22.80
2023-05-15T13:21:20.377Z,22.90
2023-05-15T13:23:48.633Z,22.90
2023-05-15T13:26:16.582Z,22.90
2023-05-15T13:28:44.501Z,22.90
2023-05-15T13:31:12.734Z,22.90
2023-05-15T13:33:40.606Z,22.90
2023-05-15T13:36:10.584Z,23.00
2023-05-15T13:38:38.511Z,23.00
2023-05-15T13:41:06.519Z,22.90
2023-05-15T13:43:34.380Z,22.90
2023-05-15T13:46:02.202Z,22.90
2023-05-15T13:48:30.093Z,22.90
2023-05-15T13:50:57.890Z,22.90
2023-05-15T13:53:27.186Z,22.90
2023-05-15T13:55:54.985Z,22.30
2023-05-15T13:58:26.310Z,22.80
2023-05-15T14:00:54.246Z,22.70
2023-05-15T14:03:22.173Z,22.70
2023-05-15T14:05:51.252Z,22.60
2023-05-15T14:08:19.069Z,22.50
2023-05-15T14:10:48.637Z,22.40
2023-05-15T14:13:16.411Z,22.30
2023-05-15T14:15:44.208Z,22.30
2023-05-15T14:18:12.015Z,22.20
2023-05-15T14:20:39.897Z,22.30
2023-05-15T14:23:07.742Z,22.30
2023-05-15T14:25:35.728Z,22.30
2023-05-15T14:28:04.890Z,22.30
2023-05-15T14:30:32.756Z,22.30
2023-05-15T14:33:01.224Z,22.30
2023-05-15T14:35:29.069Z,22.30
2023-05-15T14:37:57.624Z,22.30
2023-05-15T14:40:25.715Z,22.30
2023-05-15T14:42:53.770Z,22.30
2023-05-15T14:45:23.315Z,22.30
2023-05-15T14:47:51.311Z,22.20
2023-05-15T14:50:19.309Z,22.40
2023-05-15T14:52:47.692Z,22.10
2023-05-15T14:55:16.159Z,22.00
2023-05-15T14:57:49.081Z,22.00
2023-05-15T15:00:18.032Z,21.80
2023-05-15T15:02:47.693Z,21.70
2023-05-15T15:05:15.672Z,21.60
2023-05-15T15:08:01.490Z,21.50
2023-05-15T15:10:29.562Z,21.30
2023-05-15T15:12:57.601Z,21.20
2023-05-15T15:15:26.285Z,21.20
2023-05-15T15:17:56.561Z,21.00
2023-05-15T15:20:26.102Z,20.90
2023-05-15T15:22:54.554Z,20.80
2023-05-15T15:25:22.972Z,20.80
2023-05-15T15:27:51.201Z,20.70
2023-05-15T15:30:19.038Z,20.70
2023-05-15T15:32:46.971Z,20.60
2023-05-15T15:35:16.401Z,20.60
2023-05-15T15:37:44.198Z,20.50
2023-05-15T15:40:12.379Z,20.40
2023-05-15T15:42:40.432Z,20.30
2023-05-15T15:45:09.089Z,20.20
2023-05-15T15:47:37.033Z,20.20
2023-05-15T15:50:05.452Z,20.10
2023-05-15T15:52:34.609Z,20.00
2023-05-15T15:55:02.421Z,19.90
2023-05-15T15:57:31.184Z,19.90
2023-05-15T15:59:59.029Z,19.90
2023-05-15T16:02:28.470Z,19.90
2023-05-15T16:04:56.330Z,19.80
2023-05-15T16:07:24.287Z,19.70
2023-05-15T16:10:04.129Z,19.70
2023-05-15T16:12:39.947Z,19.70
2023-05-15T16:15:21.805Z,19.60
2023-05-15T16:17:53.727Z,19.60
2023-05-15T16:20:22.624Z,19.60
2023-05-15T16:22:51.010Z,19.60
2023-05-15T16:25:20.197Z,19.60
2023-05-15T16:27:48.176Z,19.50
2023-05-15T16:30:16.541Z,20.80
2023-05-15T16:32:44.472Z,19.50
2023-05-15T16:35:12.536Z,19.40
2023-05-15T16:37:40.419Z,20.20
2023-05-15T16:40:09.731Z,19.40
2023-05-15T16:42:39.590Z,19.30
2023-05-15T16:45:09.207Z,19.40
2023-05-15T16:47:39.041Z,19.20
2023-05-15T16:50:08.129Z,19.20
2023-05-15T16:52:36.112Z,19.10
2023-05-15T16:55:04.123Z,19.20
2023-05-15T16:57:31.932Z,19.20
2023-05-15T17:00:01.130Z,19.10
2023-05-15T17:02:29.671Z,19.10
2023-05-15T17:04:57.628Z,19.10
2023-05-15T17:07:25.954Z,19.10
2023-05-15T17:09:54.865Z,19.20
2023-05-15T17:12:23.604Z,19.20
2023-05-15T17:14:51.433Z,19.20
2023-05-15T17:17:20.624Z,19.20
2023-05-15T17:19:48.852Z,19.20
2023-05-15T17:22:16.723Z,19.20
2023-05-15T17:24:51.577Z,19.20
2023-05-15T17:27:20.681Z,19.20
2023-05-15T17:29:48.770Z,19.20
2023-05-15T17:32:17.517Z,19.20
2023-05-15T17:34:46.931Z,19.20
2023-05-15T17:37:15.448Z,19.10
2023-05-15T17:39:43.452Z,19.10
2023-05-15T17:42:12.756Z,19.10
2023-05-15T17:44:40.630Z,19.20
2023-05-15T17:47:09.962Z,19.00
2023-05-15T17:49:38.854Z,19.00
2023-05-15T17:52:08.710Z,19.00
2023-05-15T17:54:36.524Z,18.80
2023-05-15T17:57:04.775Z,18.90
2023-05-15T17:59:33.113Z,18.70
2023-05-15T18:02:01.140Z,18.70
2023-05-15T18:04:28.969Z,18.70
2023-05-15T18:06:56.752Z,18.70
2023-05-15T18:09:25.897Z,18.70
2023-05-15T18:11:53.886Z,18.70
2023-05-15T18:14:25.094Z,18.70
2023-05-15T18:16:52.992Z,18.70
2023-05-15T18:19:20.937Z,18.60
2023-05-15T18:21:48.877Z,18.60
2023-05-15T18:24:16.685Z,18.50
2023-05-15T18:26:46.019Z,18.50
2023-05-15T18:29:16.684Z,18.40
2023-05-15T18:31:44.621Z,18.30
2023-05-15T18:34:12.901Z,18.30
2023-05-15T18:36:40.815Z,18.20
2023-05-15T18:39:08.658Z,18.10
2023-05-15T18:41:36.527Z,18.00
2023-05-15T18:44:06.030Z,17.90
2023-05-15T18:46:34.458Z,17.90
2023-05-15T18:49:02.378Z,17.80
2023-05-15T18:51:31.182Z,17.80
2023-05-15T18:53:59.010Z,17.70
2023-05-15T18:56:26.783Z,17.60
2023-05-15T18:58:55.357Z,17.50
2023-05-15T19:01:24.627Z,17.50
2023-05-15T19:03:52.503Z,17.50
2023-05-15T19:06:20.704Z,17.50
2023-05-15T19:08:49.430Z,17.40
2023-05-15T19:11:18.072Z,17.40
2023-05-15T19:13:45.884Z,17.40
2023-05-15T19:16:13.789Z,17.30
2023-05-15T19:18:43.067Z,17.30
2023-05-15T19:21:11.566Z,17.20
2023-05-15T19:23:39.417Z,17.20
2023-05-15T19:26:07.278Z,17.20
2023-05-15T19:28:35.707Z,17.10
2023-05-15T19:31:04.270Z,17.10
2023-05-15T19:33:32.396Z,17.00
2023-05-15T19:36:01.814Z,17.00
2023-05-15T19:38:29.786Z,17.00
2023-05-15T19:40:57.651Z,17.00
2023-05-15T19:43:25.474Z,17.00
2023-05-15T19:45:53.282Z,16.90
2023-05-15T19:48:21.140Z,16.90
2023-05-15T19:50:49.009Z,16.90
2023-05-15T19:53:18.197Z,16.80
2023-05-15T19:55:46.440Z,16.70
2023-05-15T19:58:14.331Z,16.60
2023-05-15T20:00:42.336Z,16.50
2023-05-15T20:03:10.453Z,16.50
2023-05-15T20:05:41.008Z,16.40
2023-05-15T20:08:08.810Z,16.40
2023-05-15T20:10:38.158Z,16.30
2023-05-15T20:13:05.988Z,16.20
2023-05-15T20:15:35.181Z,16.20
2023-05-15T20:18:03.080Z,16.10
2023-05-15T20:20:31.111Z,16.00
2023-05-15T20:22:59.420Z,16.00
2023-05-15T20:25:28.918Z,15.90
2023-05-15T20:27:58.830Z,15.80
2023-05-15T20:30:28.417Z,15.80
2023-05-15T20:32:56.554Z,15.80
2023-05-15T20:35:25.099Z,15.80
2023-05-15T20:37:52.981Z,15.70
2023-05-15T20:40:22.870Z,15.60
2023-05-15T20:42:51.251Z,15.60
2023-05-15T20:45:20.708Z,15.60
2023-05-15T20:47:48.825Z,15.50
2023-05-15T20:50:17.111Z,15.50
2023-05-15T20:52:45.846Z,15.50
2023-05-15T20:55:15.985Z,15.40
2023-05-15T20:57:44.564Z,15.40
2023-05-15T21:00:15.535Z,15.40
2023-05-15T21:02:45.920Z,15.30
2023-05-15T21:05:13.839Z,15.30
2023-05-15T21:07:42.011Z,15.30
2023-05-15T21:10:10.753Z,15.30
2023-05-15T21:12:39.647Z,15.20
2023-05-15T21:15:08.948Z,15.20
2023-05-15T21:17:37.007Z,15.10
2023-05-15T21:20:07.443Z,15.10
2023-05-15T21:22:35.704Z,15.10
2023-05-15T21:25:04.149Z,16.80
2023-05-15T21:27:32.084Z,15.00
2023-05-15T21:29:59.921Z,15.00
2023-05-15T21:32:27.815Z,15.00
2023-05-15T21:34:55.755Z,15.00
2023-05-15T21:37:25.044Z,15.00
2023-05-15T21:39:52.844Z,15.00
2023-05-15T21:42:20.623Z,15.00
2023-05-15T21:44:48.785Z,15.00
2023-05-15T21:47:16.767Z,15.00
2023-05-15T21:49:44.672Z,15.00
2023-05-15T21:52:12.801Z,15.00
2023-05-15T21:54:43.743Z,14.70
2023-05-15T21:57:11.852Z,15.00
2023-05-15T21:59:39.631Z,15.00
2023-05-15T22:02:07.950Z,15.00
2023-05-15T22:04:35.809Z,15.00
2023-05-15T22:07:03.649Z,15.00
2023-05-15T22:09:31.454Z,15.00
2023-05-15T22:12:00.594Z,15.00
2023-05-15T22:14:28.407Z,15.00
2023-05-15T22:16:56.241Z,15.00
2023-05-15T22:19:32.747Z,15.00
2023-05-15T22:22:01.889Z,15.00
2023-05-15T22:24:29.771Z,15.00
2023-05-15T22:26:57.568Z,15.00
2023-05-15T22:29:26.803Z,15.00
2023-05-15T22:31:54.688Z,16.20
2023-05-15T22:34:22.521Z,14.90
2023-05-15T22:36:50.764Z,14.90
2023-05-15T22:39:18.529Z,14.90
2023-05-15T22:41:47.725Z,15.00
2023-05-15T22:44:15.987Z,14.90
2023-05-15T22:46:45.145Z,14.90
2023-05-15T22:49:23.260Z,15.00
2023-05-15T22:51:51.327Z,15.00
2023-05-15T22:54:21.600Z,15.00
2023-05-15T22:56:50.826Z,15.00
2023-05-15T22:59:19.365Z,15.00
2023-05-15T23:01:50.022Z,15.00
2023-05-15T23:04:18.557Z,15.00
2023-05-15T23:06:46.716Z,15.00
2023-05-15T23:09:14.508Z,15.00
2023-05-15T23:11:42.335Z,15.00
2023-05-15T23:14:11.949Z,15.00
2023-05-15T23:16:39.815Z,14.90
2023-05-15T23:19:09.507Z,14.90
2023-05-15T23:21:37.895Z,14.90
2023-05-15T23:24:06.215Z,14.90
2023-05-15T23:26:34.096Z,14.90
2023-05-15T23:29:01.924Z,14.80
2023-05-15T23:31:29.798Z,14.80
2023-05-15T23:33:57.583Z,14.80
2023-05-15T23:36:26.681Z,14.80
2023-05-15T23:38:54.451Z,14.70
2023-05-15T23:41:22.965Z,14.70
2023-05-15T23:43:51.137Z,14.60
2023-05-15T23:46:19.147Z,14.60
2023-05-15T23:48:46.924Z,14.60
2023-05-15T23:51:14.710Z,14.50
2023-05-15T23:53:43.845Z,14.50
2023-05-15T23:56:11.626Z,14.40
2023-05-15T23:58:39.640Z,14.40
